Time;durP1;ratioP1;P1;durP2;ratioP2;P2;SDS_P1;SDS_P2;PMS_P1;PMS_P2;Temp;Humidity;BMP_temperature;BMP_pressure;BME280_temperature;BME280_humidity;BME280_pressure;Samples;Min_cycle;Max_cycle;Signal;HPM_P1;HPM_P2
2022/02/04 00:05:55;;;;;;;43.78;39.00;;;;;;;;;;5029492;28;20431;-80
2022/02/04 00:24:53;;;;;;;339.35;126.75;;;;;;;;;;5033736;28;20346;-80
2022/02/04 00:27:25;;;;;;;337.52;137.38;;;;;;;;;;5034171;28;20224;-81
2022/02/04 00:29:59;;;;;;;47.47;39.97;;;;;;;;;;5034359;28;20193;-80
2022/02/04 00:32:30;;;;;;;228.27;113.63;;;;;;;;;;5032772;28;20453;-80
2022/02/04 00:35:07;;;;;;;44.53;39.83;;;;;;;;;;5033839;28;20216;-80
2022/02/04 00:37:45;;;;;;;257.10;112.68;;;;;;;;;;5034137;28;20478;-80
2022/02/04 00:40:18;;;;;;;224.18;111.35;;;;;;;;;;5034193;28;20214;-80
2022/02/04 00:42:46;;;;;;;229.10;110.50;;;;;;;;;;5034112;28;20191;-80
2022/02/04 00:45:20;;;;;;;217.55;113.25;;;;;;;;;;5034079;28;20219;-79
2022/02/04 00:47:56;;;;;;;218.43;108.68;;;;;;;;;;5033791;28;20395;-81
2022/02/04 00:50:29;;;;;;;222.00;105.55;;;;;;;;;;5033312;28;20727;-80
2022/02/04 00:53:11;;;;;;;147.48;94.57;;;;;;;;;;5033649;28;20208;-80
2022/02/04 00:55:45;;;;;;;216.35;81.88;;;;;;;;;;5032970;28;20254;-80
2022/02/04 01:13:11;;;;;;;42.23;34.73;;;;;;;;;;5033377;28;20195;-80
2022/02/04 01:25:57;;;;;;;187.40;110.03;;;;;;;;;;5033023;28;20241;-80
2022/02/04 01:28:26;;;;;;;47.67;39.25;;;;;;;;;;5032724;28;20208;-80
2022/02/04 01:30:54;;;;;;;324.80;107.85;;;;;;;;;;5031750;28;20207;-81
2022/02/04 01:33:22;;;;;;;126.53;75.30;;;;;;;;;;5031557;28;20689;-80
2022/02/04 01:35:50;;;;;;;319.45;106.28;;;;;;;;;;5033193;28;20223;-80
2022/02/04 01:38:17;;;;;;;39.57;35.30;;;;;;;;;;5032723;28;20207;-80
2022/02/04 01:40:44;;;;;;;243.45;92.95;;;;;;;;;;5033117;28;20463;-78
2022/02/04 01:43:13;;;;;;;263.23;95.20;;;;;;;;;;5032647;28;20189;-80
2022/02/04 01:45:41;;;;;;;47.33;41.10;;;;;;;;;;5032884;28;20187;-80
2022/02/04 01:48:08;;;;;;;77.28;50.95;;;;;;;;;;5032658;28;20450;-80
2022/02/04 01:50:36;;;;;;;37.33;33.70;;;;;;;;;;5032516;28;20239;-80
2022/02/04 01:53:04;;;;;;;51.13;41.40;;;;;;;;;;5032646;28;20203;-80
2022/02/04 01:55:32;;;;;;;132.77;101.75;;;;;;;;;;5032475;28;20470;-80
2022/02/04 01:58:00;;;;;;;49.60;42.27;;;;;;;;;;5032567;28;20195;-79
2022/02/04 02:00:28;;;;;;;263.05;88.07;;;;;;;;;;5032930;28;20450;-80
2022/02/04 02:02:56;;;;;;;295.40;101.55;;;;;;;;;;5032804;28;20195;-80
2022/02/04 02:05:23;;;;;;;341.00;107.80;;;;;;;;;;5032564;28;20696;-80
2022/02/04 02:07:51;;;;;;;336.63;111.38;;;;;;;;;;5034541;28;20225;-80
2022/02/04 02:10:19;;;;;;;47.03;41.97;;;;;;;;;;5036599;28;20199;-80
2022/02/04 02:12:57;;;;;;;189.93;114.03;;;;;;;;;;5036612;28;21003;-78
2022/02/04 02:15:31;;;;;;;189.60;107.97;;;;;;;;;;5036515;28;20220;-80
2022/02/04 02:48:47;;;;;;;282.45;125.72;;;;;;;;;;5014016;28;20258;-79
2022/02/04 02:54:20;;;;;;;360.35;109.15;;;;;;;;;;5013763;28;20203;-78
2022/02/04 02:59:42;;;;;;;279.17;115.88;;;;;;;;;;5013788;28;20219;-78
2022/02/04 03:02:09;;;;;;;317.35;123.18;;;;;;;;;;5013704;28;20355;-79
2022/02/04 03:04:37;;;;;;;325.63;107.68;;;;;;;;;;5013748;28;20192;-79
2022/02/04 03:07:04;;;;;;;109.55;67.75;;;;;;;;;;4997481;28;20204;-78
2022/02/04 03:09:32;;;;;;;115.25;86.65;;;;;;;;;;5013459;28;20204;-78
2022/02/04 03:12:00;;;;;;;307.67;114.50;;;;;;;;;;5013126;28;20311;-78
2022/02/04 03:14:28;;;;;;;42.10;37.60;;;;;;;;;;5013381;28;20208;-79
2022/02/04 03:16:56;;;;;;;164.45;114.32;;;;;;;;;;5013343;28;20466;-78
2022/02/04 03:19:24;;;;;;;307.92;110.45;;;;;;;;;;5012729;28;20193;-78
2022/02/04 03:21:52;;;;;;;314.85;113.03;;;;;;;;;;5027387;28;20210;-78
2022/02/04 03:24:22;;;;;;;300.30;111.60;;;;;;;;;;5035253;28;20562;-79
2022/02/04 03:26:53;;;;;;;146.65;105.15;;;;;;;;;;5035495;28;20254;-78
2022/02/04 03:29:26;;;;;;;240.90;98.00;;;;;;;;;;5035421;28;20196;-79
2022/02/04 03:32:00;;;;;;;324.65;106.55;;;;;;;;;;5035094;28;20233;-78
2022/02/04 03:34:27;;;;;;;40.65;36.55;;;;;;;;;;5034980;28;20204;-78
2022/02/04 03:36:55;;;;;;;108.53;95.25;;;;;;;;;;5035237;28;20310;-77
2022/02/04 03:39:22;;;;;;;224.13;121.90;;;;;;;;;;5035145;28;20192;-79
2022/02/04 03:41:49;;;;;;;309.33;103.93;;;;;;;;;;5035137;28;20200;-79
2022/02/04 03:44:17;;;;;;;387.08;129.90;;;;;;;;;;5034877;28;20199;-78
2022/02/04 03:46:46;;;;;;;377.42;127.65;;;;;;;;;;5034623;28;20223;-79
2022/02/04 03:49:13;;;;;;;301.30;111.15;;;;;;;;;;5035103;28;20199;-79
2022/02/04 03:51:41;;;;;;;245.55;119.57;;;;;;;;;;5033363;28;20235;-79
2022/02/04 03:54:08;;;;;;;338.55;125.32;;;;;;;;;;5035042;28;20695;-78
2022/02/04 03:56:36;;;;;;;233.98;115.10;;;;;;;;;;5034686;28;20220;-78
2022/02/04 03:59:03;;;;;;;239.02;113.20;;;;;;;;;;5034647;28;20194;-78
2022/02/04 04:01:30;;;;;;;373.48;123.78;;;;;;;;;;5034817;28;20199;-78
2022/02/04 04:04:00;;;;;;;345.63;119.63;;;;;;;;;;5034763;28;20200;-78
2022/02/04 04:06:27;;;;;;;360.83;125.30;;;;;;;;;;5034776;28;20201;-78
2022/02/04 04:08:55;;;;;;;350.80;133.05;;;;;;;;;;5034683;28;20200;-79
2022/02/04 04:11:23;;;;;;;408.08;122.15;;;;;;;;;;5034570;28;20245;-78
2022/02/04 04:13:50;;;;;;;434.98;133.10;;;;;;;;;;5034536;28;20192;-78
2022/02/04 04:16:19;;;;;;;445.23;148.45;;;;;;;;;;5034482;28;20212;-78
2022/02/04 04:18:46;;;;;;;419.17;127.88;;;;;;;;;;5034492;28;20187;-78
2022/02/04 04:21:15;;;;;;;384.20;122.57;;;;;;;;;;5032804;28;20727;-79
2022/02/04 04:23:43;;;;;;;378.75;125.00;;;;;;;;;;5034364;28;20202;-78
2022/02/04 04:26:10;;;;;;;377.10;121.68;;;;;;;;;;5034277;28;20203;-78
2022/02/04 04:28:38;;;;;;;357.40;123.70;;;;;;;;;;5034066;28;20192;-79
2022/02/04 04:31:05;;;;;;;278.95;114.55;;;;;;;;;;5033319;28;20194;-79
2022/02/04 04:33:32;;;;;;;360.85;120.68;;;;;;;;;;5034343;28;20207;-79
2022/02/04 04:36:00;;;;;;;368.35;124.25;;;;;;;;;;5034101;28;20224;-79
2022/02/04 04:38:35;;;;;;;364.77;127.35;;;;;;;;;;5032772;28;20656;-79
2022/02/04 04:44:06;;;;;;;333.73;119.05;;;;;;;;;;5033931;28;20206;-78
2022/02/04 05:28:35;;;;;;;29.95;27.38;;;;;;;;;;4933689;29;20195;-78
2022/02/04 05:31:02;;;;;;;59.75;53.50;;;;;;;;;;4948064;28;20210;-79
2022/02/04 05:33:30;;;;;;;34.65;31.50;;;;;;;;;;4991417;28;20205;-79
2022/02/04 05:35:58;;;;;;;113.40;101.68;;;;;;;;;;4991284;28;20228;-79
2022/02/04 05:38:27;;;;;;;165.57;124.65;;;;;;;;;;4991188;28;20221;-78
2022/02/04 05:40:55;;;;;;;71.85;66.40;;;;;;;;;;4991337;28;20200;-78
2022/02/04 05:43:28;;;;;;;138.48;120.32;;;;;;;;;;4990694;28;20213;-78
2022/02/04 05:46:00;;;;;;;98.00;90.32;;;;;;;;;;4990913;28;20224;-80
2022/02/04 05:48:29;;;;;;;58.13;54.15;;;;;;;;;;4991146;28;20251;-80
2022/02/04 05:51:12;;;;;;;62.35;58.17;;;;;;;;;;4990922;28;20328;-77
2022/02/04 05:53:51;;;;;;;39.63;36.42;;;;;;;;;;4991062;28;20196;-78
2022/02/04 05:56:28;;;;;;;50.22;46.60;;;;;;;;;;5005589;28;20230;-78
2022/02/04 05:59:04;;;;;;;32.88;29.67;;;;;;;;;;5031512;28;20549;-79
2022/02/04 06:01:46;;;;;;;34.78;31.58;;;;;;;;;;5032510;28;20206;-79
2022/02/04 06:04:25;;;;;;;26.13;24.17;;;;;;;;;;5032732;28;20195;-78
2022/02/04 06:13:07;;;;;;;29.65;27.08;;;;;;;;;;5032639;28;20656;-78
2022/02/04 06:23:50;;;;;;;27.17;24.85;;;;;;;;;;5032488;28;20195;-78
2022/02/04 06:26:17;;;;;;;26.65;24.58;;;;;;;;;;5032373;28;20196;-78
2022/02/04 06:28:44;;;;;;;28.65;26.35;;;;;;;;;;5032331;28;20192;-78
2022/02/04 06:31:13;;;;;;;29.48;26.90;;;;;;;;;;5032568;28;20210;-79
2022/02/04 06:33:41;;;;;;;26.35;24.05;;;;;;;;;;5032650;28;20215;-78
2022/02/04 06:36:08;;;;;;;27.80;25.45;;;;;;;;;;5032498;28;20216;-78
2022/02/04 06:38:36;;;;;;;24.58;22.58;;;;;;;;;;5032718;28;20204;-78
2022/02/04 06:41:04;;;;;;;24.33;22.48;;;;;;;;;;5032327;28;20197;-78
2022/02/04 06:43:31;;;;;;;33.03;30.38;;;;;;;;;;5032113;28;20203;-78
2022/02/04 06:45:59;;;;;;;40.03;36.83;;;;;;;;;;5030923;28;20227;-78
2022/02/04 06:48:28;;;;;;;68.00;63.33;;;;;;;;;;5032391;28;20190;-78
2022/02/04 06:50:55;;;;;;;70.35;65.25;;;;;;;;;;5032178;28;20235;-79
2022/02/04 06:53:23;;;;;;;58.92;55.05;;;;;;;;;;5032485;28;20189;-78
2022/02/04 06:55:50;;;;;;;43.80;39.80;;;;;;;;;;5034152;28;20265;-78
2022/02/04 06:58:17;;;;;;;62.30;58.35;;;;;;;;;;5035786;28;20198;-78
2022/02/04 07:00:45;;;;;;;55.42;51.65;;;;;;;;;;5035900;28;20198;-78
2022/02/04 07:03:13;;;;;;;24.58;22.85;;;;;;;;;;5035667;28;20664;-78
2022/02/04 07:05:53;;;;;;;31.58;28.90;;;;;;;;;;5035904;28;20187;-78
2022/02/04 07:08:25;;;;;;;27.75;25.70;;;;;;;;;;5035905;28;20195;-77
2022/02/04 07:11:10;;;;;;;60.95;56.88;;;;;;;;;;5035797;28;20298;-79
2022/02/04 07:13:47;;;;;;;75.45;70.35;;;;;;;;;;5035888;28;20194;-78
2022/02/04 07:16:28;;;;;;;86.15;79.82;;;;;;;;;;5035969;28;20201;-81
2022/02/04 07:21:41;;;;;;;135.75;114.20;;;;;;;;;;5034483;28;20202;-80
2022/02/04 07:24:09;;;;;;;64.65;60.55;;;;;;;;;;5035695;28;20199;-80
2022/02/04 07:26:36;;;;;;;52.70;48.70;;;;;;;;;;5035232;28;20196;-80
2022/02/04 07:29:04;;;;;;;44.85;41.67;;;;;;;;;;5035324;28;20213;-80
2022/02/04 07:31:36;;;;;;;47.38;44.10;;;;;;;;;;5035530;28;20409;-79
2022/02/04 07:34:14;;;;;;;58.42;55.15;;;;;;;;;;5035126;28;20189;-80
2022/02/04 07:42:12;;;;;;;114.22;104.22;;;;;;;;;;5034846;28;20218;-79
2022/02/04 07:44:40;;;;;;;136.90;118.38;;;;;;;;;;5035170;28;20664;-78
2022/02/04 07:47:07;;;;;;;29.27;27.30;;;;;;;;;;5034772;28;20234;-79
2022/02/04 07:49:34;;;;;;;26.30;24.17;;;;;;;;;;5034139;28;20192;-79
2022/02/04 07:52:03;;;;;;;25.83;24.02;;;;;;;;;;5034783;28;20234;-79
2022/02/04 07:54:31;;;;;;;26.65;24.45;;;;;;;;;;5034739;28;20661;-78
2022/02/04 07:56:58;;;;;;;22.60;21.10;;;;;;;;;;5033360;28;20688;-78
2022/02/04 07:59:26;;;;;;;27.48;25.17;;;;;;;;;;5033778;28;20192;-78
2022/02/04 08:01:53;;;;;;;23.83;21.98;;;;;;;;;;5034502;28;20203;-79
2022/02/04 08:04:28;;;;;;;23.85;21.95;;;;;;;;;;5033244;28;20253;-78
2022/02/04 08:07:00;;;;;;;33.40;28.92;;;;;;;;;;5033819;28;20225;-85
2022/02/04 08:09:39;;;;;;;26.37;24.30;;;;;;;;;;5036158;28;20185;-84
2022/02/04 08:15:05;;;;;;;23.38;21.75;;;;;;;;;;5035810;28;20194;-86
2022/02/04 08:20:36;;;;;;;41.25;37.95;;;;;;;;;;5023999;28;20200;-86
2022/02/04 08:23:33;;;;;;;92.90;83.50;;;;;;;;;;5035921;28;20201;-84
2022/02/04 08:48:48;;;;;;;92.57;85.88;;;;;;;;;;4972869;28;20996;-79
2022/02/04 08:51:37;;;;;;;73.93;69.30;;;;;;;;;;4972300;28;20590;-78
2022/02/04 08:54:12;;;;;;;83.10;77.32;;;;;;;;;;4972774;28;20733;-78
2022/02/04 08:59:33;;;;;;;64.88;60.97;;;;;;;;;;4972767;28;20299;-77
2022/02/04 09:02:07;;;;;;;27.73;25.63;;;;;;;;;;4972460;28;20206;-81
2022/02/04 09:04:40;;;;;;;26.98;24.77;;;;;;;;;;4972483;28;20202;-78
2022/02/04 09:07:10;;;;;;;64.10;60.40;;;;;;;;;;4972434;28;20642;-80
2022/02/04 09:09:51;;;;;;;86.50;80.78;;;;;;;;;;4991086;28;20654;-78
2022/02/04 09:21:08;;;;;;;133.38;118.78;;;;;;;;;;5033888;28;20203;-86
2022/02/04 09:23:34;;;;;;;99.93;92.37;;;;;;;;;;5034060;28;20207;-86
2022/02/04 09:26:06;;;;;;;171.27;136.32;;;;;;;;;;5034202;28;20439;-84
2022/02/04 09:28:33;;;;;;;32.85;30.65;;;;;;;;;;5033826;28;20203;-83
2022/02/04 09:31:02;;;;;;;98.47;91.65;;;;;;;;;;5034056;28;20574;-86
2022/02/04 09:33:29;;;;;;;65.85;62.30;;;;;;;;;;5034634;28;20193;-87
2022/02/04 09:35:57;;;;;;;50.38;47.60;;;;;;;;;;5035754;28;20189;-87
2022/02/04 09:38:24;;;;;;;47.25;44.45;;;;;;;;;;5034900;28;20645;-87
2022/02/04 09:40:51;;;;;;;45.10;42.50;;;;;;;;;;5034882;28;20286;-86
2022/02/04 09:43:19;;;;;;;32.45;30.65;;;;;;;;;;5034107;28;20438;-87
2022/02/04 09:45:47;;;;;;;101.20;93.88;;;;;;;;;;5034138;28;20225;-87
2022/02/04 09:48:16;;;;;;;130.52;120.78;;;;;;;;;;5034145;28;20215;-85
2022/02/04 09:50:46;;;;;;;137.95;126.25;;;;;;;;;;5031664;28;20756;-77
2022/02/04 10:10:41;;;;;;;118.27;109.43;;;;;;;;;;5010521;28;20455;-80
2022/02/04 10:13:21;;;;;;;187.85;135.88;;;;;;;;;;5010480;28;20413;-80
2022/02/04 10:18:35;;;;;;;154.97;124.60;;;;;;;;;;5005354;28;20230;-80
2022/02/04 10:21:06;;;;;;;168.60;136.25;;;;;;;;;;5013107;28;20487;-85
2022/02/04 10:23:46;;;;;;;148.77;133.32;;;;;;;;;;5011182;28;20235;-88
2022/02/04 10:26:14;;;;;;;76.87;72.27;;;;;;;;;;5012043;28;20190;-87
2022/02/04 10:28:42;;;;;;;58.23;55.03;;;;;;;;;;4997369;28;20862;-92
2022/02/04 10:31:11;;;;;;;134.18;112.63;;;;;;;;;;5015330;28;20778;-80
2022/02/04 10:33:50;;;;;;;69.30;64.87;;;;;;;;;;5014541;28;20227;-86
2022/02/04 10:36:32;;;;;;;39.43;37.50;;;;;;;;;;5015134;28;20421;-92
2022/02/04 10:39:01;;;;;;;32.03;30.13;;;;;;;;;;5014774;28;20475;-82
2022/02/04 10:41:33;;;;;;;36.78;34.90;;;;;;;;;;5014301;28;20449;-81
2022/02/04 10:44:07;;;;;;;23.53;21.90;;;;;;;;;;5033812;28;20196;-83
2022/02/04 10:46:39;;;;;;;22.00;20.60;;;;;;;;;;5036941;28;20438;-83
2022/02/04 10:49:19;;;;;;;21.57;20.17;;;;;;;;;;5036672;28;20449;-83
2022/02/04 10:52:21;;;;;;;28.97;27.07;;;;;;;;;;5036623;28;20951;-83
2022/02/04 11:00:27;;;;;;;22.07;20.70;;;;;;;;;;5041953;28;20426;-96
2022/02/04 11:03:07;;;;;;;25.13;22.90;;;;;;;;;;5049244;28;20466;-87
2022/02/04 11:05:49;;;;;;;25.13;23.73;;;;;;;;;;5054855;28;20479;-83
2022/02/04 11:08:52;;;;;;;19.63;18.63;;;;;;;;;;5056634;28;20458;-82
2022/02/04 11:34:07;;;;;;;17.90;16.97;;;;;;;;;;5055394;28;20269;-80
2022/02/04 11:48:39;;;;;;;19.90;18.80;;;;;;;;;;5053070;28;20446;-81
2022/02/04 11:51:28;;;;;;;19.60;18.43;;;;;;;;;;5055195;28;20492;-86
2022/02/04 11:54:29;;;;;;;20.30;19.00;;;;;;;;;;5054473;28;20826;-79
2022/02/04 11:57:01;;;;;;;20.13;18.88;;;;;;;;;;5054291;28;20456;-78
2022/02/04 11:59:34;;;;;;;19.67;18.53;;;;;;;;;;5052839;28;20214;-78
2022/02/04 12:02:03;;;;;;;20.45;19.25;;;;;;;;;;5054357;28;20908;-78
2022/02/04 12:04:31;;;;;;;19.60;18.40;;;;;;;;;;5054767;28;20202;-78
2022/02/04 12:06:58;;;;;;;20.17;18.97;;;;;;;;;;5038882;28;20871;-79
2022/02/04 12:09:38;;;;;;;19.77;18.60;;;;;;;;;;5034900;28;20462;-79
2022/02/04 12:12:06;;;;;;;19.83;18.73;;;;;;;;;;5034263;28;20916;-79
2022/02/04 12:14:34;;;;;;;21.00;19.80;;;;;;;;;;5034556;28;20439;-80
2022/02/04 12:17:06;;;;;;;20.93;19.70;;;;;;;;;;5034602;28;20440;-80
2022/02/04 12:19:37;;;;;;;19.80;18.40;;;;;;;;;;5034427;28;20445;-79
2022/02/04 12:22:05;;;;;;;20.10;18.90;;;;;;;;;;5034534;28;20456;-80
2022/02/04 12:24:37;;;;;;;20.60;19.30;;;;;;;;;;5034340;28;20816;-79
2022/02/04 12:27:23;;;;;;;20.20;19.00;;;;;;;;;;5034043;28;20487;-79
2022/02/04 12:29:53;;;;;;;20.63;19.33;;;;;;;;;;5033945;28;20913;-79
2022/02/04 12:32:20;;;;;;;19.48;18.38;;;;;;;;;;5034098;28;20457;-86
2022/02/04 12:34:48;;;;;;;20.43;19.23;;;;;;;;;;5034173;28;20187;-79
2022/02/04 12:37:18;;;;;;;20.70;19.50;;;;;;;;;;5034030;28;20454;-77
2022/02/04 12:39:46;;;;;;;21.83;20.52;;;;;;;;;;5034061;28;20220;-76
2022/02/04 12:42:16;;;;;;;21.75;20.45;;;;;;;;;;5033755;28;20192;-76
2022/02/04 12:44:44;;;;;;;20.58;19.40;;;;;;;;;;5033945;28;20242;-76
2022/02/04 12:47:13;;;;;;;20.47;19.30;;;;;;;;;;5034033;28;20193;-76
2022/02/04 12:49:48;;;;;;;21.45;20.05;;;;;;;;;;5033665;28;20528;-76
2022/02/04 12:52:20;;;;;;;21.20;20.00;;;;;;;;;;5033014;28;20275;-76
2022/02/04 12:54:51;;;;;;;20.50;19.33;;;;;;;;;;5033767;28;20414;-76
2022/02/04 12:57:32;;;;;;;21.20;19.90;;;;;;;;;;5033756;28;20556;-77
2022/02/04 13:00:05;;;;;;;20.90;19.70;;;;;;;;;;5033321;28;20195;-76
2022/02/04 13:02:52;;;;;;;20.23;19.07;;;;;;;;;;5033556;28;20441;-76
2022/02/04 13:08:13;;;;;;;20.33;19.20;;;;;;;;;;5033481;28;20408;-76
2022/02/04 13:10:41;;;;;;;19.83;18.73;;;;;;;;;;5033462;28;20450;-76
2022/02/04 13:13:10;;;;;;;20.00;18.97;;;;;;;;;;5033384;28;20509;-77
2022/02/04 13:15:38;;;;;;;20.97;19.77;;;;;;;;;;5033156;28;20425;-77
2022/02/04 13:18:08;;;;;;;20.70;19.60;;;;;;;;;;5033259;28;20479;-81
2022/02/04 13:20:37;;;;;;;20.10;19.00;;;;;;;;;;5031280;28;20459;-77
2022/02/04 13:23:07;;;;;;;19.70;18.60;;;;;;;;;;5032868;28;20425;-76
2022/02/04 13:25:35;;;;;;;20.40;19.20;;;;;;;;;;5032953;28;20501;-77
2022/02/04 13:28:03;;;;;;;20.00;18.90;;;;;;;;;;5032999;28;20432;-77
2022/02/04 13:30:32;;;;;;;19.20;18.20;;;;;;;;;;5032989;28;20769;-77
2022/02/04 13:32:59;;;;;;;20.20;19.10;;;;;;;;;;5032914;28;20482;-77
2022/02/04 13:35:31;;;;;;;19.30;18.00;;;;;;;;;;5033150;28;20443;-78
2022/02/04 13:38:06;;;;;;;18.80;17.70;;;;;;;;;;5033065;28;20796;-77
2022/02/04 13:40:51;;;;;;;19.63;18.30;;;;;;;;;;5033159;28;20454;-77
2022/02/04 13:43:23;;;;;;;18.70;17.70;;;;;;;;;;5032578;28;20896;-78
2022/02/04 13:46:00;;;;;;;18.63;17.63;;;;;;;;;;5032383;28;20485;-75
2022/02/04 13:51:21;;;;;;;20.13;19.02;;;;;;;;;;5030384;28;20231;-76
2022/02/04 13:54:03;;;;;;;19.00;18.00;;;;;;;;;;5033012;28;20187;-75
2022/02/04 13:56:42;;;;;;;19.83;18.83;;;;;;;;;;5032321;28;20257;-77
2022/02/04 13:59:17;;;;;;;19.15;18.15;;;;;;;;;;5032846;28;20228;-76
2022/02/04 14:01:54;;;;;;;19.13;18.02;;;;;;;;;;5032699;28;20192;-76
2022/02/04 14:04:22;;;;;;;19.70;18.60;;;;;;;;;;5032667;28;20226;-76
2022/02/04 14:07:06;;;;;;;19.27;18.20;;;;;;;;;;5032374;28;20189;-76
2022/02/04 14:09:37;;;;;;;20.25;19.05;;;;;;;;;;5032558;28;20425;-76
2022/02/04 14:12:15;;;;;;;19.70;18.60;;;;;;;;;;5031079;28;20204;-76
2022/02/04 14:14:42;;;;;;;19.83;18.67;;;;;;;;;;5032701;28;20417;-76
2022/02/04 14:17:10;;;;;;;20.10;19.00;;;;;;;;;;5031074;28;20662;-77
2022/02/04 14:19:37;;;;;;;19.73;18.53;;;;;;;;;;5032716;28;20476;-76
2022/02/04 14:22:11;;;;;;;19.48;18.40;;;;;;;;;;5032270;28;20959;-76
2022/02/04 14:24:38;;;;;;;19.53;18.43;;;;;;;;;;5032473;28;20193;-77
2022/02/04 14:27:06;;;;;;;20.17;19.07;;;;;;;;;;5032504;28;20447;-77
2022/02/04 14:29:41;;;;;;;19.63;18.57;;;;;;;;;;5032376;28;20443;-77
2022/02/04 14:32:17;;;;;;;19.30;18.30;;;;;;;;;;5032461;28;20933;-75
2022/02/04 14:51:57;;;;;;;117.78;92.20;;;;;;;;;;4990503;28;20591;-75
2022/02/04 14:54:44;;;;;;;19.35;18.25;;;;;;;;;;4990350;28;20199;-75
2022/02/04 15:00:18;;;;;;;20.20;19.10;;;;;;;;;;4990631;28;20483;-75
2022/02/04 15:02:49;;;;;;;20.83;19.55;;;;;;;;;;4990342;28;21037;-75
2022/02/04 15:05:19;;;;;;;20.90;19.73;;;;;;;;;;4990495;28;20197;-74
2022/02/04 15:07:48;;;;;;;20.35;19.30;;;;;;;;;;4974711;28;20475;-75
2022/02/04 15:10:27;;;;;;;21.30;20.10;;;;;;;;;;4990522;28;20205;-76
2022/02/04 15:12:55;;;;;;;21.47;20.17;;;;;;;;;;4990146;28;20197;-76
2022/02/04 15:15:22;;;;;;;19.90;18.90;;;;;;;;;;5022250;28;20460;-75
2022/02/04 15:17:50;;;;;;;19.80;18.70;;;;;;;;;;5035450;28;20413;-75
2022/02/04 15:20:17;;;;;;;20.37;19.27;;;;;;;;;;5035263;28;20220;-75
2022/02/04 15:22:45;;;;;;;20.33;19.23;;;;;;;;;;5035770;28;20442;-77
2022/02/04 15:25:21;;;;;;;20.70;19.53;;;;;;;;;;5035369;28;20439;-77
2022/02/04 15:28:01;;;;;;;21.05;19.40;;;;;;;;;;5035869;28;20473;-81
2022/02/04 15:30:33;;;;;;;21.00;19.80;;;;;;;;;;5035765;28;20197;-78
2022/02/04 15:33:01;;;;;;;20.70;19.50;;;;;;;;;;5035952;28;20192;-79
2022/02/04 15:35:30;;;;;;;20.13;19.03;;;;;;;;;;5035308;28;20475;-81
2022/02/04 15:37:58;;;;;;;20.50;19.40;;;;;;;;;;5034162;28;20511;-82
2022/02/04 15:40:26;;;;;;;21.70;20.50;;;;;;;;;;5035560;28;20963;-81
2022/02/04 15:42:57;;;;;;;21.40;20.10;;;;;;;;;;5035882;28;20422;-82
2022/02/04 15:46:00;;;;;;;20.77;19.48;;;;;;;;;;5035634;28;20578;-82
2022/02/04 15:48:39;;;;;;;21.70;20.42;;;;;;;;;;5035722;28;20208;-82
2022/02/04 15:51:20;;;;;;;21.60;20.40;;;;;;;;;;5035891;28;20267;-81
2022/02/04 15:54:02;;;;;;;21.63;20.30;;;;;;;;;;5036611;28;20406;-76
2022/02/04 15:56:47;;;;;;;20.60;19.40;;;;;;;;;;5034879;28;20251;-76
2022/02/04 16:02:17;;;;;;;21.17;19.87;;;;;;;;;;5034659;28;20460;-77
2022/02/04 16:04:47;;;;;;;19.90;18.80;;;;;;;;;;5034288;28;20456;-77
2022/02/04 16:07:16;;;;;;;20.35;19.23;;;;;;;;;;5036072;28;20920;-82
2022/02/04 16:09:48;;;;;;;19.67;18.58;;;;;;;;;;5036372;28;20542;-81
2022/02/04 16:12:21;;;;;;;19.25;18.17;;;;;;;;;;5036952;28;20185;-83
2022/02/04 16:14:55;;;;;;;20.23;19.02;;;;;;;;;;5035305;28;20571;-77
2022/02/04 16:17:30;;;;;;;19.90;18.77;;;;;;;;;;5034536;28;20337;-76
2022/02/04 16:20:12;;;;;;;20.23;19.02;;;;;;;;;;5034550;28;20517;-76
2022/02/04 16:22:58;;;;;;;19.73;18.70;;;;;;;;;;5034023;28;20610;-76
2022/02/04 16:25:40;;;;;;;20.00;18.90;;;;;;;;;;5034101;28;20464;-76
2022/02/04 16:30:54;;;;;;;21.57;20.47;;;;;;;;;;5034152;28;20554;-76
2022/02/04 16:33:22;;;;;;;18.83;17.85;;;;;;;;;;5033772;28;20442;-76
2022/02/04 16:35:49;;;;;;;19.80;18.70;;;;;;;;;;5034674;28;20202;-80
2022/02/04 16:38:19;;;;;;;19.57;17.90;;;;;;;;;;5032824;28;20910;-77
2022/02/04 16:40:52;;;;;;;20.03;18.93;;;;;;;;;;5033847;28;20490;-76
2022/02/04 16:43:19;;;;;;;21.52;20.00;;;;;;;;;;5033919;28;20451;-77
2022/02/04 16:45:47;;;;;;;19.67;18.48;;;;;;;;;;5033594;28;20191;-76
2022/02/04 16:48:16;;;;;;;19.97;18.87;;;;;;;;;;5034149;28;20202;-76
2022/02/04 16:50:44;;;;;;;18.57;17.63;;;;;;;;;;5033265;28;21030;-76
2022/02/04 16:53:11;;;;;;;19.88;18.42;;;;;;;;;;5033686;28;20493;-79
2022/02/04 16:55:38;;;;;;;19.90;18.80;;;;;;;;;;5033631;28;20192;-79
2022/02/04 16:58:06;;;;;;;19.75;18.35;;;;;;;;;;5033835;28;20206;-79
2022/02/04 17:00:33;;;;;;;19.48;18.25;;;;;;;;;;5033472;28;20277;-79
2022/02/04 17:03:06;;;;;;;21.17;20.08;;;;;;;;;;5033548;28;20281;-76
2022/02/04 17:05:41;;;;;;;21.40;19.80;;;;;;;;;;5031874;28;20243;-77
2022/02/04 17:08:10;;;;;;;18.63;17.73;;;;;;;;;;5033351;28;20648;-76
2022/02/04 17:10:42;;;;;;;18.92;17.95;;;;;;;;;;5033293;28;20716;-77
2022/02/04 17:13:09;;;;;;;18.80;17.80;;;;;;;;;;5033426;28;20525;-77
2022/02/04 17:15:38;;;;;;;19.35;18.38;;;;;;;;;;5033285;28;20455;-76
2022/02/04 17:18:06;;;;;;;19.25;18.25;;;;;;;;;;5033501;28;20200;-76
2022/02/04 17:20:35;;;;;;;19.13;18.13;;;;;;;;;;5033153;28;20221;-78
2022/02/04 17:23:03;;;;;;;19.38;18.27;;;;;;;;;;5032970;28;20195;-77
2022/02/04 17:25:34;;;;;;;17.65;16.85;;;;;;;;;;5032849;28;20229;-77
2022/02/04 17:28:01;;;;;;;19.30;18.30;;;;;;;;;;5033002;28;20191;-78
2022/02/04 17:30:29;;;;;;;18.67;17.58;;;;;;;;;;5033145;28;20650;-78
2022/02/04 17:32:56;;;;;;;19.15;18.15;;;;;;;;;;5032999;28;20221;-78
2022/02/04 17:35:25;;;;;;;18.75;17.75;;;;;;;;;;5032802;28;20208;-78
2022/02/04 17:37:57;;;;;;;19.20;18.10;;;;;;;;;;5032335;28;20596;-78
2022/02/04 17:40:25;;;;;;;19.75;18.50;;;;;;;;;;5032566;28;20225;-77
2022/02/04 17:42:54;;;;;;;18.85;17.90;;;;;;;;;;5033026;28;20192;-80
2022/02/04 17:45:22;;;;;;;20.45;19.35;;;;;;;;;;5032696;28;20223;-77
2022/02/04 17:47:55;;;;;;;44.83;42.15;;;;;;;;;;5032714;28;20195;-77
2022/02/04 17:50:29;;;;;;;28.37;26.47;;;;;;;;;;5031122;28;20235;-77
2022/02/04 17:53:05;;;;;;;23.35;21.60;;;;;;;;;;5032462;28;20976;-77
2022/02/04 17:55:40;;;;;;;22.02;20.83;;;;;;;;;;5032594;28;20650;-77
2022/02/04 17:58:22;;;;;;;21.88;20.55;;;;;;;;;;5031413;28;20244;-76
2022/02/04 18:01:15;;;;;;;21.73;20.52;;;;;;;;;;5032380;28;20230;-76
2022/02/04 18:06:54;;;;;;;21.27;20.08;;;;;;;;;;5030735;28;20237;-77
2022/02/04 18:09:18;;;;;;;21.40;20.20;;;;;;;;;;5032478;28;20212;-75
2022/02/04 18:11:45;;;;;;;21.30;20.10;;;;;;;;;;5032722;28;20190;-75
2022/02/04 18:14:13;;;;;;;22.63;21.13;;;;;;;;;;5032442;28;20599;-75
2022/02/04 18:16:41;;;;;;;21.27;20.08;;;;;;;;;;5032595;28;20191;-75
2022/02/04 18:19:09;;;;;;;21.05;19.80;;;;;;;;;;5032364;28;20636;-76
2022/02/04 18:21:36;;;;;;;21.40;20.10;;;;;;;;;;5031171;28;20202;-76
2022/02/04 18:24:04;;;;;;;21.00;19.73;;;;;;;;;;5032642;28;20203;-76
2022/02/04 18:26:32;;;;;;;21.00;19.70;;;;;;;;;;5031898;28;20602;-75
2022/02/04 18:29:00;;;;;;;23.40;21.75;;;;;;;;;;5032712;28;20652;-76
2022/02/04 18:31:29;;;;;;;20.88;19.67;;;;;;;;;;5031027;28;20209;-76
2022/02/04 18:33:57;;;;;;;21.90;20.55;;;;;;;;;;5032670;28;20235;-76
2022/02/04 18:36:24;;;;;;;21.52;20.25;;;;;;;;;;5014820;28;20202;-76
2022/02/04 18:38:55;;;;;;;22.77;21.27;;;;;;;;;;5032578;28;20186;-76
2022/02/04 18:41:51;;;;;;;22.45;21.15;;;;;;;;;;5032408;28;20223;-76
2022/02/04 18:44:23;;;;;;;22.83;21.58;;;;;;;;;;5032402;28;20221;-76
2022/02/04 18:47:01;;;;;;;23.60;22.20;;;;;;;;;;5030970;28;20247;-76
2022/02/04 18:49:35;;;;;;;24.65;23.20;;;;;;;;;;5032132;28;20208;-76
2022/02/04 18:52:18;;;;;;;24.85;23.45;;;;;;;;;;5035787;28;20261;-76
2022/02/04 18:55:16;;;;;;;25.92;24.50;;;;;;;;;;5036087;28;20274;-75
2022/02/04 18:57:42;;;;;;;26.30;24.83;;;;;;;;;;5035749;28;20575;-75
2022/02/04 19:00:14;;;;;;;26.30;24.90;;;;;;;;;;5035898;28;20261;-75
2022/02/04 19:02:45;;;;;;;27.38;25.88;;;;;;;;;;5035616;28;20233;-75
2022/02/04 19:05:17;;;;;;;27.88;26.33;;;;;;;;;;5035886;28;20199;-76
2022/02/04 19:07:51;;;;;;;28.73;26.92;;;;;;;;;;5035624;28;20197;-76
2022/02/04 19:10:18;;;;;;;26.13;24.63;;;;;;;;;;5035690;28;20197;-76
2022/02/04 19:12:50;;;;;;;27.48;25.83;;;;;;;;;;5035592;28;20202;-76
2022/02/04 19:18:04;;;;;;;30.55;28.73;;;;;;;;;;5035367;28;20936;-75
2022/02/04 19:20:36;;;;;;;28.67;26.98;;;;;;;;;;5035382;28;20229;-74
2022/02/04 19:23:07;;;;;;;29.10;27.45;;;;;;;;;;5035445;28;20244;-75
2022/02/04 19:25:38;;;;;;;32.58;30.50;;;;;;;;;;5035306;28;20654;-76